Melstone, Montana
Current Conditions -  °F | °C
As of 1:40 AM on Saturday 20 Dec 2014 (Local Time) from KMVH Reporting Station
Broken Clouds Broken Clouds  
Wind Chill: 33°   Ceiling: 10000
Heat Index: 37°   Visibility: 10mi
Dew Point: 18°   Wind: 6mph
Humidity: 45%   Direction: 270°W
Pressure: 29.85"   Gusts: NA
Location:  46.6°N, 107.87°W
Report Text: KMVH 200840Z AUTO 27005KT 10SM BKN100 03/M08 A2985 RMK A01
Loading
Personal Weather Stations






























Interactive Weather Map New forecast layout! Learn more

10-Day Weather Forecast

Advertisements
Track Severe Weather on mobile